createdAt,value
2018-01-10T00:01:34.365Z,2.08
2018-01-10T00:04:44.335Z,2.08
2018-01-10T00:07:54.143Z,2.05
2018-01-10T00:11:05.008Z,1.99
2018-01-10T00:14:18.392Z,1.98
2018-01-10T00:17:29.585Z,1.95
2018-01-10T00:20:42.715Z,1.92
2018-01-10T00:23:52.911Z,1.92
2018-01-10T00:27:02.898Z,1.90
2018-01-10T00:30:14.564Z,1.89
2018-01-10T00:33:25.329Z,1.86
2018-01-10T00:36:35.745Z,1.83
2018-01-10T00:39:49.321Z,1.80
2018-01-10T00:43:07.396Z,1.79
2018-01-10T00:46:19.826Z,1.77
2018-01-10T00:49:32.796Z,1.73
2018-01-10T00:52:43.238Z,1.71
2018-01-10T00:55:55.363Z,1.66
2018-01-10T00:59:05.529Z,1.54
2018-01-10T01:02:17.210Z,1.53
2018-01-10T01:05:27.998Z,1.45
2018-01-10T01:08:38.306Z,1.37
2018-01-10T01:11:47.318Z,1.37
2018-01-10T01:14:57.886Z,1.38
2018-01-10T01:18:07.420Z,1.36
2018-01-10T01:21:17.648Z,1.39
2018-01-10T01:24:27.288Z,1.37
2018-01-10T01:27:40.761Z,1.31
2018-01-10T01:30:52.963Z,1.29
2018-01-10T01:34:07.304Z,1.28
2018-01-10T01:37:23.634Z,1.26
2018-01-10T01:40:34.310Z,1.24
2018-01-10T01:43:43.314Z,1.25
2018-01-10T01:46:57.012Z,1.25
2018-01-10T01:50:06.590Z,1.26
2018-01-10T01:53:16.948Z,1.31
2018-01-10T01:56:27.700Z,1.28
2018-01-10T01:59:42.618Z,1.31
2018-01-10T02:02:53.835Z,1.31
2018-01-10T02:06:05.189Z,1.26
2018-01-10T02:09:17.664Z,1.29
2018-01-10T02:12:28.094Z,1.27
2018-01-10T02:15:39.232Z,1.29
2018-01-10T02:18:48.800Z,1.30
2018-01-10T02:22:00.660Z,1.26
2018-01-10T02:25:10.283Z,1.23
2018-01-10T02:28:19.071Z,1.24
2018-01-10T02:31:30.255Z,1.22
2018-01-10T02:34:44.143Z,1.18
2018-01-10T02:37:54.616Z,1.18
2018-01-10T02:41:05.665Z,1.17
2018-01-10T02:44:17.149Z,1.22
2018-01-10T02:47:29.778Z,1.17
2018-01-10T02:50:40.997Z,1.09
2018-01-10T02:53:55.955Z,1.12
2018-01-10T02:57:06.601Z,1.07
2018-01-10T03:00:17.187Z,1.12
2018-01-10T03:03:26.907Z,1.04
2018-01-10T03:06:37.078Z,1.04
2018-01-10T03:09:47.056Z,1.08
2018-01-10T03:12:58.147Z,1.05
2018-01-10T03:16:10.454Z,1.04
2018-01-10T03:19:20.424Z,1.01
2018-01-10T03:22:31.041Z,1.05
2018-01-10T03:25:54.141Z,1.01
2018-01-10T03:29:05.090Z,1.03
2018-01-10T03:32:17.576Z,1.00
2018-01-10T03:35:27.668Z,1.05
2018-01-10T03:38:40.296Z,1.03
2018-01-10T03:41:50.008Z,1.03
2018-01-10T03:45:03.851Z,1.07
2018-01-10T03:48:15.656Z,1.00
2018-01-10T03:51:26.182Z,1.05
2018-01-10T03:54:36.818Z,1.02
2018-01-10T03:57:48.170Z,1.07
2018-01-10T04:00:58.189Z,1.02
2018-01-10T04:04:10.299Z,1.00
2018-01-10T04:07:33.693Z,1.11
2018-01-10T04:10:44.521Z,1.19
2018-01-10T04:13:54.259Z,1.13
2018-01-10T04:17:03.901Z,1.13
2018-01-10T04:20:18.278Z,1.12
2018-01-10T04:23:30.119Z,1.14
2018-01-10T04:26:44.089Z,1.22
2018-01-10T04:29:52.994Z,1.32
2018-01-10T04:33:02.533Z,1.38
2018-01-10T04:36:13.472Z,1.47
2018-01-10T04:39:22.990Z,1.49
2018-01-10T04:42:33.231Z,1.54
2018-01-10T04:45:49.513Z,1.53
2018-01-10T04:49:16.946Z,1.54
2018-01-10T04:52:26.088Z,1.55
2018-01-10T04:55:35.384Z,1.57
2018-01-10T04:58:45.880Z,1.57
2018-01-10T05:01:56.704Z,1.60
2018-01-10T05:05:06.765Z,1.62
2018-01-10T05:08:22.248Z,1.65
2018-01-10T05:11:31.875Z,1.67
2018-01-10T05:14:41.937Z,1.68
2018-01-10T05:17:54.664Z,1.68
2018-01-10T05:21:02.768Z,1.72
2018-01-10T05:24:10.105Z,1.74
2018-01-10T05:27:20.293Z,1.74
2018-01-10T05:30:47.927Z,1.77
2018-01-10T05:34:00.711Z,1.78
2018-01-10T05:37:18.019Z,1.81
2018-01-10T05:40:28.354Z,1.82
2018-01-10T05:43:56.198Z,1.84
2018-01-10T05:47:08.699Z,1.84
2018-01-10T05:50:34.357Z,1.85
2018-01-10T05:53:45.243Z,1.88
2018-01-10T05:56:58.899Z,1.88
2018-01-10T06:00:08.887Z,1.89
2018-01-10T06:03:18.862Z,1.91
2018-01-10T06:06:29.372Z,1.92
2018-01-10T06:09:54.583Z,1.93
2018-01-10T06:13:05.547Z,1.94
2018-01-10T06:16:15.520Z,1.95
2018-01-10T06:19:25.564Z,1.97
2018-01-10T06:22:37.673Z,1.97
2018-01-10T06:25:52.615Z,1.99
2018-01-10T06:29:01.578Z,2.00
2018-01-10T06:32:13.438Z,2.02
2018-01-10T06:35:25.680Z,2.03
2018-01-10T06:38:36.499Z,2.05
2018-01-10T06:41:47.036Z,2.04
2018-01-10T06:44:56.830Z,2.06
2018-01-10T06:48:07.543Z,2.08
2018-01-10T06:51:18.898Z,2.08
2018-01-10T06:54:28.656Z,2.11
2018-01-10T06:57:37.659Z,2.12
2018-01-10T07:00:48.390Z,2.13
2018-01-10T07:03:59.827Z,2.14
2018-01-10T07:07:10.341Z,2.16
2018-01-10T07:10:20.003Z,2.17
2018-01-10T07:13:31.353Z,2.18
2018-01-10T07:16:43.997Z,2.19
2018-01-10T07:19:55.181Z,2.21
2018-01-10T07:23:05.616Z,2.23
2018-01-10T07:26:17.229Z,2.25
2018-01-10T07:29:28.163Z,2.25
2018-01-10T07:32:38.863Z,2.25
2018-01-10T07:35:51.388Z,2.27
2018-01-10T07:38:58.687Z,2.29
2018-01-10T07:42:26.922Z,2.29
2018-01-10T07:45:37.819Z,2.30
2018-01-10T07:49:09.685Z,2.31
2018-01-10T07:52:26.067Z,2.33
2018-01-10T07:55:38.003Z,2.34
2018-01-10T07:58:48.679Z,2.35
2018-01-10T08:02:00.333Z,2.36
2018-01-10T08:05:14.694Z,2.37
2018-01-10T08:08:22.326Z,2.38
2018-01-10T08:11:34.135Z,2.39
2018-01-10T08:14:43.114Z,2.40
2018-01-10T08:17:53.903Z,2.40
2018-01-10T08:21:05.424Z,2.42
2018-01-10T08:24:15.194Z,2.43
2018-01-10T08:27:26.072Z,2.45
2018-01-10T08:30:37.132Z,2.46
2018-01-10T08:33:49.111Z,2.48
2018-01-10T08:37:00.123Z,2.49
2018-01-10T08:40:11.315Z,2.51
2018-01-10T08:43:22.697Z,2.52
2018-01-10T08:46:33.885Z,2.52
2018-01-10T08:49:44.808Z,2.53
2018-01-10T08:52:58.897Z,2.54
2018-01-10T08:56:11.032Z,2.57
2018-01-10T08:59:22.698Z,2.58
2018-01-10T09:02:34.143Z,2.59
2018-01-10T09:05:47.196Z,2.60
2018-01-10T09:09:00.837Z,2.61
2018-01-10T09:12:13.880Z,2.63
2018-01-10T09:15:24.922Z,2.64
2018-01-10T09:18:35.937Z,2.66
2018-01-10T09:21:47.336Z,2.67
2018-01-10T09:24:56.415Z,2.70
2018-01-10T09:28:07.374Z,2.71
2018-01-10T09:31:18.713Z,2.73
2018-01-10T09:34:28.410Z,2.76
2018-01-10T09:37:38.299Z,2.78
2018-01-10T09:40:48.016Z,2.80
2018-01-10T09:44:05.708Z,2.84
2018-01-10T09:47:16.013Z,2.87
2018-01-10T09:50:26.358Z,2.88
2018-01-10T09:53:37.900Z,2.90
2018-01-10T09:56:47.604Z,2.93
2018-01-10T09:59:58.663Z,2.97
2018-01-10T10:03:10.653Z,2.99
2018-01-10T10:06:20.931Z,3.02
2018-01-10T10:09:31.475Z,3.05
2018-01-10T10:12:40.613Z,3.09
2018-01-10T10:15:50.635Z,3.13
2018-01-10T10:19:00.554Z,3.17
2018-01-10T10:22:10.750Z,3.20
2018-01-10T10:25:20.202Z,3.24
2018-01-10T10:28:29.146Z,3.28
2018-01-10T10:31:39.039Z,3.33
2018-01-10T10:34:52.797Z,3.35
2018-01-10T10:38:09.136Z,3.40
2018-01-10T10:41:19.094Z,3.44
2018-01-10T10:44:30.251Z,3.46
2018-01-10T10:47:46.464Z,3.51
2018-01-10T10:50:56.499Z,3.54
2018-01-10T10:54:08.327Z,3.56
2018-01-10T10:57:21.862Z,3.58
2018-01-10T11:00:33.301Z,3.61
2018-01-10T11:03:44.861Z,3.65
2018-01-10T11:06:56.406Z,3.67
2018-01-10T11:10:07.041Z,3.72
2018-01-10T11:13:20.382Z,3.75
2018-01-10T11:16:32.949Z,3.78
2018-01-10T11:19:43.450Z,3.81
2018-01-10T11:22:56.571Z,3.83
2018-01-10T11:26:07.865Z,3.87
2018-01-10T11:29:19.185Z,3.89
2018-01-10T11:32:30.102Z,3.92
2018-01-10T11:35:43.978Z,3.95
2018-01-10T11:38:55.752Z,3.99
2018-01-10T11:42:07.907Z,4.02
2018-01-10T11:45:19.491Z,4.03
2018-01-10T11:48:30.338Z,4.05
2018-01-10T11:51:41.660Z,4.07
2018-01-10T11:54:51.444Z,4.09
2018-01-10T11:58:03.587Z,4.10
2018-01-10T12:01:15.050Z,4.13
2018-01-10T12:04:24.903Z,4.16
2018-01-10T12:07:37.510Z,4.15
2018-01-10T12:10:47.982Z,4.18
2018-01-10T12:13:57.007Z,4.19
2018-01-10T12:17:08.114Z,4.20
2018-01-10T12:20:21.685Z,4.21
2018-01-10T12:23:35.696Z,4.22
2018-01-10T12:26:48.042Z,4.24
2018-01-10T12:29:59.095Z,4.25
2018-01-10T12:33:08.352Z,4.26
2018-01-10T12:36:18.005Z,4.29
2018-01-10T12:39:30.207Z,4.30
2018-01-10T12:42:42.116Z,4.30
2018-01-10T12:45:58.934Z,4.32
2018-01-10T12:49:08.899Z,4.32
2018-01-10T12:52:22.060Z,4.33
2018-01-10T12:55:33.708Z,4.35
2018-01-10T12:58:44.908Z,4.37
2018-01-10T13:01:59.133Z,4.40
2018-01-10T13:05:17.882Z,4.41
2018-01-10T13:08:33.276Z,4.43
2018-01-10T13:11:43.160Z,4.43
2018-01-10T13:14:55.186Z,4.46
2018-01-10T13:18:06.104Z,4.47
2018-01-10T13:21:19.995Z,4.47
2018-01-10T13:24:30.067Z,4.47
2018-01-10T13:27:41.552Z,4.48
2018-01-10T13:30:58.349Z,4.50
2018-01-10T13:34:09.739Z,4.50
2018-01-10T13:37:21.204Z,4.51
2018-01-10T13:40:29.634Z,4.52
2018-01-10T13:43:39.290Z,4.52
2018-01-10T13:46:48.812Z,4.52
2018-01-10T13:49:59.754Z,4.53
2018-01-10T13:53:10.359Z,4.54
2018-01-10T13:56:24.767Z,4.55
2018-01-10T13:59:35.330Z,4.55
2018-01-10T14:02:49.040Z,4.55
2018-01-10T14:05:59.179Z,4.55
2018-01-10T14:09:11.120Z,4.55
2018-01-10T14:12:21.608Z,4.55
2018-01-10T14:15:32.910Z,4.56
2018-01-10T14:18:42.359Z,4.56
2018-01-10T14:21:59.867Z,4.56
2018-01-10T14:25:16.742Z,4.55
2018-01-10T14:28:28.920Z,4.55
2018-01-10T14:31:38.993Z,4.55
2018-01-10T14:34:48.442Z,4.54
2018-01-10T14:38:00.522Z,4.54
2018-01-10T14:41:12.830Z,4.54
2018-01-10T14:44:25.205Z,4.55
2018-01-10T14:47:37.488Z,4.53
2018-01-10T14:50:47.200Z,4.53
2018-01-10T14:54:00.015Z,4.53
2018-01-10T14:57:11.199Z,4.53
2018-01-10T15:00:20.953Z,4.52
2018-01-10T15:03:31.828Z,4.52
2018-01-10T15:06:41.126Z,4.53
2018-01-10T15:09:51.505Z,4.52
2018-01-10T15:13:05.753Z,4.51
2018-01-10T15:16:17.077Z,4.49
2018-01-10T15:19:26.357Z,4.49
2018-01-10T15:22:36.210Z,4.48
2018-01-10T15:25:49.837Z,4.47
2018-01-10T15:28:59.788Z,4.46
2018-01-10T15:32:10.259Z,4.43
2018-01-10T15:35:21.172Z,4.43
2018-01-10T15:38:32.149Z,4.41
2018-01-10T15:41:41.455Z,4.40
2018-01-10T15:44:52.545Z,4.39
2018-01-10T15:48:04.037Z,4.35
2018-01-10T15:51:15.406Z,4.34
2018-01-10T15:54:35.238Z,4.32
2018-01-10T15:57:46.628Z,4.29
2018-01-10T16:00:59.376Z,4.28
2018-01-10T16:04:13.943Z,4.27
2018-01-10T16:07:22.597Z,4.25
2018-01-10T16:10:30.694Z,4.23
2018-01-10T16:13:40.336Z,4.22
2018-01-10T16:16:49.881Z,4.20
2018-01-10T16:20:01.349Z,4.18
2018-01-10T16:23:11.858Z,4.17
2018-01-10T16:26:25.226Z,4.16
2018-01-10T16:29:37.876Z,4.14
2018-01-10T16:32:50.598Z,4.14
2018-01-10T16:36:04.684Z,4.14
2018-01-10T16:39:15.829Z,4.11
2018-01-10T16:42:25.987Z,4.11
2018-01-10T16:45:38.038Z,4.11
2018-01-10T16:49:05.277Z,4.10
2018-01-10T16:52:27.149Z,4.09
2018-01-10T16:59:32.324Z,4.09
2018-01-10T17:03:10.871Z,4.08
2018-01-10T17:06:36.691Z,4.08
2018-01-10T17:10:22.119Z,4.07
2018-01-10T17:13:49.221Z,4.06
2018-01-10T17:17:27.674Z,4.06
2018-01-10T17:20:46.146Z,4.06
2018-01-10T17:24:12.927Z,4.05
2018-01-10T17:27:40.777Z,4.05
2018-01-10T17:34:29.425Z,4.04
2018-01-10T17:38:04.507Z,4.03
2018-01-10T17:41:26.955Z,4.02
2018-01-10T17:44:55.225Z,4.01
2018-01-10T17:48:18.078Z,4.00
2018-01-10T17:51:41.018Z,4.00
2018-01-10T18:02:00.374Z,3.98
2018-01-10T18:05:23.858Z,3.98
2018-01-10T18:08:38.905Z,3.97
2018-01-10T18:12:01.273Z,3.98
2018-01-10T18:15:18.942Z,3.97
2018-01-10T18:18:45.117Z,3.97
2018-01-10T18:22:05.064Z,3.97
2018-01-10T18:25:29.951Z,3.97
2018-01-10T18:28:56.836Z,3.97
2018-01-10T18:32:11.033Z,3.97
2018-01-10T18:35:34.842Z,3.97
2018-01-10T18:38:57.120Z,3.95
2018-01-10T18:42:18.042Z,3.97
2018-01-10T18:45:44.150Z,3.96
2018-01-10T18:49:12.669Z,3.96
2018-01-10T18:52:34.282Z,3.96
2018-01-10T18:55:57.883Z,3.94
2018-01-10T18:59:12.664Z,3.95
2018-01-10T19:02:39.514Z,3.94
2018-01-10T19:06:29.324Z,3.93
2018-01-10T19:09:47.042Z,3.93
2018-01-10T19:13:05.216Z,3.93
2018-01-10T19:16:23.114Z,3.92
2018-01-10T19:19:47.180Z,3.92
2018-01-10T19:23:27.373Z,3.91
2018-01-10T19:26:58.227Z,3.91
2018-01-10T19:30:32.272Z,3.91
2018-01-10T19:33:56.513Z,3.91
2018-01-10T19:41:07.982Z,3.90
2018-01-10T19:44:34.973Z,3.91
2018-01-10T19:47:56.794Z,3.90
2018-01-10T19:51:12.836Z,3.91
2018-01-10T19:55:01.385Z,3.90
2018-01-10T19:58:42.947Z,3.91
2018-01-10T20:01:53.426Z,3.91
2018-01-10T20:05:04.493Z,3.90
2018-01-10T20:08:26.830Z,3.89
2018-01-10T20:23:01.350Z,3.88
2018-01-10T20:26:09.970Z,3.87
2018-01-10T20:29:24.310Z,3.88
2018-01-10T20:32:33.624Z,3.88
2018-01-10T20:35:48.726Z,3.87
2018-01-10T20:38:58.354Z,3.88
2018-01-10T20:42:11.358Z,3.87
2018-01-10T20:45:27.038Z,3.87
2018-01-10T20:48:41.023Z,3.86
2018-01-10T20:51:52.087Z,3.85
2018-01-10T20:55:04.658Z,3.85
2018-01-10T20:58:15.449Z,3.84
2018-01-10T21:01:24.493Z,3.84
2018-01-10T21:04:35.118Z,3.83
2018-01-10T21:07:46.408Z,3.84
2018-01-10T21:10:57.283Z,3.82
2018-01-10T21:14:08.246Z,3.84
2018-01-10T21:17:19.450Z,3.82
2018-01-10T21:20:30.363Z,3.82
2018-01-10T21:23:41.088Z,3.80
2018-01-10T21:26:52.389Z,3.80
2018-01-10T21:30:04.945Z,3.80
2018-01-10T21:33:18.207Z,3.78
2018-01-10T21:36:26.951Z,3.78
2018-01-10T21:39:42.200Z,3.79
2018-01-10T21:43:05.220Z,3.80
2018-01-10T21:46:17.790Z,3.78
2018-01-10T21:49:25.148Z,3.78
2018-01-10T21:52:35.667Z,3.77
2018-01-10T21:55:45.690Z,3.75
2018-01-10T21:58:57.515Z,3.75
2018-01-10T22:02:08.216Z,3.76
2018-01-10T22:05:21.538Z,3.75
2018-01-10T22:08:31.509Z,3.74
2018-01-10T22:11:41.041Z,3.75
2018-01-10T22:14:53.804Z,3.74
2018-01-10T22:18:03.767Z,3.73
2018-01-10T22:21:14.063Z,3.73
2018-01-10T22:24:24.062Z,3.73
2018-01-10T22:27:34.334Z,3.71
2018-01-10T22:30:43.483Z,3.71
2018-01-10T22:33:53.589Z,3.73
2018-01-10T22:37:02.654Z,3.71
2018-01-10T22:40:13.184Z,3.70
2018-01-10T22:43:24.430Z,3.68
2018-01-10T22:46:32.753Z,3.68
2018-01-10T22:49:46.709Z,3.69
2018-01-10T22:52:57.441Z,3.68
2018-01-10T22:56:09.351Z,3.68
2018-01-10T22:59:18.838Z,3.67
2018-01-10T23:02:29.238Z,3.65
2018-01-10T23:05:40.844Z,3.65
2018-01-10T23:08:52.526Z,3.64
2018-01-10T23:12:03.549Z,3.63
2018-01-10T23:15:16.414Z,3.63
2018-01-10T23:18:29.435Z,3.60
2018-01-10T23:21:39.457Z,3.61
2018-01-10T23:24:49.280Z,3.59
2018-01-10T23:28:00.116Z,3.60
2018-01-10T23:31:10.140Z,3.59
2018-01-10T23:34:19.853Z,3.58
2018-01-10T23:37:30.405Z,3.59
2018-01-10T23:40:41.353Z,3.59
2018-01-10T23:43:55.020Z,3.58
2018-01-10T23:47:04.812Z,3.57
2018-01-10T23:50:16.068Z,3.56
2018-01-10T23:53:29.279Z,3.56
2018-01-10T23:56:46.132Z,3.57
2018-01-10T23:59:57.035Z,3.56
